createdAt,value
2022-08-08T00:00:55.026Z,8.93
2022-08-08T00:06:09.931Z,8.95
2022-08-08T00:11:17.982Z,8.65
2022-08-08T00:16:26.705Z,8.43
2022-08-08T00:21:39.556Z,8.30
2022-08-08T00:26:52.567Z,8.57
2022-08-08T00:32:21.106Z,9.77
2022-08-08T00:37:47.167Z,10.15
2022-08-08T00:43:19.257Z,11.45
2022-08-08T00:48:42.015Z,12.50
2022-08-08T00:54:41.105Z,13.65
2022-08-08T01:00:04.847Z,13.60
2022-08-08T01:05:58.603Z,13.18
2022-08-08T01:11:12.290Z,13.48
2022-08-08T01:16:54.967Z,14.40
2022-08-08T01:22:40.328Z,14.02
2022-08-08T01:28:28.100Z,14.38
2022-08-08T01:33:53.998Z,14.60
2022-08-08T01:39:35.018Z,13.95
2022-08-08T01:44:54.928Z,14.13
2022-08-08T01:50:26.228Z,13.88
2022-08-08T01:56:27.481Z,14.70
2022-08-08T02:01:15.892Z,14.25
2022-08-08T02:06:48.240Z,13.80
2022-08-08T02:12:00.429Z,14.32
2022-08-08T02:17:20.174Z,14.82
2022-08-08T02:22:34.286Z,14.88
2022-08-08T02:28:25.895Z,14.48
2022-08-08T02:34:08.006Z,14.23
2022-08-08T02:40:00.056Z,14.55
2022-08-08T02:45:51.240Z,13.57
2022-08-08T02:51:30.105Z,14.05
2022-08-08T02:57:22.480Z,13.77
2022-08-08T03:02:50.552Z,13.38
2022-08-08T03:08:10.191Z,12.57
2022-08-08T03:15:53.334Z,12.15
2022-08-08T03:18:53.767Z,13.43
2022-08-08T03:24:01.887Z,12.80
2022-08-08T03:29:16.893Z,12.57
2022-08-08T03:34:23.990Z,13.20
2022-08-08T03:39:29.585Z,11.98
2022-08-08T03:44:33.951Z,11.90
2022-08-08T03:49:59.597Z,12.38
2022-08-08T03:55:20.370Z,12.25
2022-08-08T04:00:27.703Z,12.10
2022-08-08T04:05:48.094Z,11.57
2022-08-08T04:10:59.865Z,12.43
2022-08-08T04:16:05.614Z,11.82
2022-08-08T04:21:13.367Z,12.55
2022-08-08T04:26:17.566Z,12.30
2022-08-08T04:31:57.264Z,11.68
2022-08-08T04:36:44.803Z,13.73
2022-08-08T04:41:48.928Z,12.15
2022-08-08T04:46:53.311Z,12.75
2022-08-08T04:51:57.662Z,11.63
2022-08-08T04:57:01.769Z,11.43
2022-08-08T05:02:04.305Z,11.25
2022-08-08T05:07:10.320Z,11.48
2022-08-08T05:12:20.423Z,10.32
2022-08-08T05:17:24.341Z,11.07
2022-08-08T05:22:28.015Z,11.02
2022-08-08T05:27:41.515Z,11.27
2022-08-08T05:32:45.400Z,10.60
2022-08-08T05:37:59.264Z,10.48
2022-08-08T05:44:02.562Z,10.30
2022-08-08T05:48:52.168Z,12.18
2022-08-08T05:54:27.740Z,10.73
2022-08-08T05:59:59.141Z,11.57
2022-08-08T06:04:57.022Z,10.55
2022-08-08T06:10:06.289Z,10.10
2022-08-08T06:15:12.580Z,9.10
2022-08-08T06:20:20.807Z,9.93
2022-08-08T06:25:33.160Z,9.40
2022-08-08T06:30:51.739Z,10.20
2022-08-08T06:36:08.477Z,9.30
2022-08-08T06:41:17.571Z,9.27
2022-08-08T06:46:23.759Z,8.65
2022-08-08T06:51:46.692Z,8.90
2022-08-08T06:56:52.833Z,10.00
2022-08-08T07:02:27.350Z,9.20
2022-08-08T07:07:45.488Z,11.57
2022-08-08T07:12:54.416Z,7.60
2022-08-08T07:18:36.999Z,7.88
2022-08-08T07:24:01.621Z,7.97
2022-08-08T07:29:20.270Z,7.78
2022-08-08T07:34:35.007Z,8.45
2022-08-08T07:39:57.617Z,7.70
2022-08-08T07:45:05.812Z,6.88
2022-08-08T07:50:12.220Z,7.13
2022-08-08T07:55:28.543Z,6.78
2022-08-08T08:00:43.375Z,6.75
2022-08-08T08:05:53.403Z,7.50
2022-08-08T08:11:00.256Z,7.85
2022-08-08T08:16:06.928Z,7.47
2022-08-08T08:21:18.664Z,8.63
2022-08-08T08:26:27.551Z,8.35
2022-08-08T08:31:34.754Z,8.52
2022-08-08T08:36:44.983Z,7.70
2022-08-08T08:41:54.916Z,7.93
2022-08-08T08:47:02.904Z,8.43
2022-08-08T08:52:11.490Z,7.07
2022-08-08T08:57:17.293Z,8.32
2022-08-08T09:02:35.714Z,7.65
2022-08-08T09:07:52.379Z,7.63
2022-08-08T09:13:09.937Z,8.23
2022-08-08T09:18:14.792Z,7.50
2022-08-08T09:23:25.516Z,8.38
2022-08-08T09:28:37.536Z,8.20
2022-08-08T09:34:15.091Z,9.18
2022-08-08T09:39:19.158Z,8.50
2022-08-08T09:44:50.717Z,8.00
2022-08-08T09:49:58.912Z,9.23
2022-08-08T09:55:07.163Z,9.20
2022-08-08T10:00:35.994Z,9.18
2022-08-08T10:05:37.091Z,8.70
2022-08-08T10:10:50.006Z,9.85
2022-08-08T10:16:01.092Z,9.00
2022-08-08T10:21:22.970Z,8.93
2022-08-08T10:26:56.914Z,7.80
2022-08-08T10:32:17.993Z,8.40
2022-08-08T10:37:30.230Z,7.57
2022-08-08T10:42:37.541Z,8.20
2022-08-08T10:47:48.580Z,8.45
2022-08-08T10:53:03.488Z,8.65
2022-08-08T10:58:09.717Z,8.85
2022-08-08T11:03:15.603Z,8.25
2022-08-08T11:08:37.219Z,7.97
2022-08-08T11:13:52.169Z,7.40
2022-08-08T11:19:05.101Z,8.10
2022-08-08T11:24:10.202Z,8.68
2022-08-08T11:29:15.868Z,8.35
2022-08-08T11:34:23.466Z,7.65
2022-08-08T11:39:37.009Z,7.95
2022-08-08T11:44:40.573Z,8.68
2022-08-08T11:49:44.835Z,8.40
2022-08-08T11:54:52.128Z,8.55
2022-08-08T12:00:02.772Z,8.05
2022-08-08T12:05:16.680Z,8.43
2022-08-08T12:10:21.932Z,11.70
2022-08-08T12:15:29.440Z,7.80
2022-08-08T12:20:40.185Z,9.40
2022-08-08T12:25:44.877Z,8.43
2022-08-08T12:31:06.516Z,8.45
2022-08-08T12:36:12.806Z,7.97
2022-08-08T12:41:34.010Z,15.90
2022-08-08T12:46:37.587Z,13.18
2022-08-08T12:51:53.633Z,9.02
2022-08-08T12:57:14.115Z,8.27
2022-08-08T13:02:28.481Z,9.95
2022-08-08T13:08:04.265Z,9.35
2022-08-08T13:13:06.172Z,8.25
2022-08-08T13:18:13.660Z,7.57
2022-08-08T13:23:36.587Z,6.88
2022-08-08T13:28:42.194Z,7.18
2022-08-08T13:33:49.813Z,7.20
2022-08-08T13:38:52.619Z,6.93
2022-08-08T13:43:54.961Z,7.43
2022-08-08T13:50:33.392Z,7.35
2022-08-08T13:54:29.488Z,7.18
2022-08-08T13:59:40.740Z,6.78
2022-08-08T14:05:09.199Z,6.82
2022-08-08T14:10:33.143Z,6.82
2022-08-08T14:15:50.142Z,6.95
2022-08-08T14:21:08.251Z,8.07
2022-08-08T14:26:25.195Z,7.10
2022-08-08T14:32:06.223Z,7.50
2022-08-08T14:36:54.581Z,6.63
2022-08-08T14:42:03.488Z,6.78
2022-08-08T14:47:16.976Z,7.47
2022-08-08T14:52:24.206Z,7.47
2022-08-08T14:58:02.542Z,7.78
2022-08-08T15:03:10.568Z,7.90
2022-08-08T15:08:22.073Z,8.63
2022-08-08T15:13:40.966Z,8.13
2022-08-08T15:18:58.348Z,8.48
2022-08-08T15:24:00.629Z,8.23
2022-08-08T15:29:03.448Z,8.80
2022-08-08T15:34:18.671Z,8.45
2022-08-08T15:39:39.082Z,9.35
2022-08-08T15:44:42.589Z,8.45
2022-08-08T15:49:47.753Z,9.73
2022-08-08T15:54:51.823Z,8.80
2022-08-08T16:00:14.168Z,9.90
2022-08-08T16:05:17.185Z,8.88
2022-08-08T16:13:15.519Z,9.45
2022-08-08T16:15:57.734Z,10.30
2022-08-08T16:21:20.667Z,9.15
2022-08-08T16:26:34.835Z,10.88
2022-08-08T16:31:44.752Z,9.77
2022-08-08T16:36:51.583Z,9.77
2022-08-08T16:41:55.030Z,9.65
2022-08-08T16:47:39.986Z,9.90
2022-08-08T16:55:20.745Z,11.48
2022-08-08T16:58:15.252Z,9.40
2022-08-08T17:03:24.837Z,9.77
2022-08-08T17:08:37.560Z,9.85
2022-08-08T17:14:00.799Z,11.32
2022-08-08T17:19:03.340Z,12.07
2022-08-08T17:24:10.548Z,12.65
2022-08-08T17:29:33.695Z,10.05
2022-08-08T17:35:44.567Z,10.25
2022-08-08T17:40:05.889Z,9.60
2022-08-08T17:45:22.502Z,9.13
2022-08-08T17:50:26.433Z,11.43
2022-08-08T17:56:05.564Z,9.10
2022-08-08T18:00:56.450Z,9.52
2022-08-08T18:05:59.749Z,9.70
2022-08-08T18:11:03.657Z,9.65
2022-08-08T18:16:06.316Z,10.00
2022-08-08T18:21:10.725Z,9.68
2022-08-08T18:26:29.090Z,9.38
2022-08-08T18:31:31.565Z,9.68
2022-08-08T18:36:33.822Z,9.38
2022-08-08T18:41:51.347Z,12.70
2022-08-08T18:47:00.887Z,11.20
2022-08-08T18:52:03.274Z,9.57
2022-08-08T18:57:08.881Z,9.23
2022-08-08T19:02:28.751Z,9.32
2022-08-08T19:07:33.398Z,9.50
2022-08-08T19:12:39.762Z,9.30
2022-08-08T19:17:47.984Z,8.77
2022-08-08T19:22:50.752Z,9.05
2022-08-08T19:27:57.469Z,9.43
2022-08-08T19:33:02.620Z,8.48
2022-08-08T19:38:06.471Z,9.43
2022-08-08T19:43:12.451Z,8.88
2022-08-08T19:48:28.764Z,8.65
2022-08-08T19:53:53.501Z,15.05
2022-08-08T19:58:55.644Z,9.10
2022-08-08T20:04:01.649Z,7.90
2022-08-08T20:09:08.745Z,7.97
2022-08-08T20:14:32.574Z,8.25
2022-08-08T20:19:42.359Z,8.65
2022-08-08T20:24:45.958Z,8.68
2022-08-08T20:30:00.224Z,8.52
2022-08-08T20:35:04.386Z,8.55
2022-08-08T20:40:08.777Z,9.98
2022-08-08T20:45:11.224Z,8.52
2022-08-08T20:50:15.465Z,8.63
2022-08-08T20:55:25.887Z,8.75
2022-08-08T21:00:28.480Z,8.23
2022-08-08T21:05:32.732Z,8.30
2022-08-08T21:10:52.326Z,8.52
2022-08-08T21:16:05.149Z,8.27
2022-08-08T21:21:38.560Z,8.10
2022-08-08T21:26:41.820Z,8.00
2022-08-08T21:31:58.347Z,8.25
2022-08-08T21:37:11.480Z,8.10
2022-08-08T21:42:18.610Z,8.30
2022-08-08T21:48:07.164Z,8.25
2022-08-08T21:54:33.386Z,8.35
2022-08-08T21:58:14.715Z,8.93
2022-08-08T22:03:19.713Z,8.25
2022-08-08T22:08:24.330Z,8.20
2022-08-08T22:13:26.698Z,8.48
2022-08-08T22:18:49.548Z,8.68
2022-08-08T22:23:55.043Z,8.35
2022-08-08T22:29:13.255Z,8.90
2022-08-08T22:34:21.462Z,8.57
2022-08-08T22:39:45.552Z,9.48
2022-08-08T22:44:48.688Z,8.95
2022-08-08T22:49:53.984Z,9.27
2022-08-08T22:55:04.343Z,8.88
2022-08-08T23:00:11.754Z,9.00
2022-08-08T23:05:15.912Z,8.98
2022-08-08T23:10:19.564Z,9.27
2022-08-08T23:16:38.199Z,10.05
2022-08-08T23:20:51.497Z,9.95
2022-08-08T23:25:57.427Z,10.15
2022-08-08T23:30:59.744Z,9.73
2022-08-08T23:36:07.754Z,9.60
2022-08-08T23:41:17.605Z,10.98
2022-08-08T23:49:05.466Z,9.77
2022-08-08T23:52:05.037Z,10.60
2022-08-08T23:57:15.375Z,9.30
